Time;durP1;ratioP1;P1;durP2;ratioP2;P2;SDS_P1;SDS_P2;PMS_P1;PMS_P2;Temp;Humidity;BMP_temperature;BMP_pressure;BME280_temperature;BME280_humidity;BME280_pressure;Samples;Min_cycle;Max_cycle;Signal;HPM_P1;HPM_P2
2024/03/29 00:00:11;;;;;;;2.45;0.80;;;5.00;99.90;;;;;;5065000;28;20028;-61
2024/03/29 00:02:57;;;;;;;6.18;1.10;;;4.90;99.90;;;;;;5072211;28;20516;-61
2024/03/29 00:05:43;;;;;;;3.63;0.88;;;4.90;99.90;;;;;;5068189;28;20802;-61
2024/03/29 00:08:28;;;;;;;6.47;1.60;;;4.90;99.90;;;;;;5070108;28;20028;-62
2024/03/29 00:11:14;;;;;;;4.03;0.85;;;4.90;99.90;;;;;;5065481;28;20036;-61
2024/03/29 00:14:00;;;;;;;4.88;1.00;;;4.90;99.90;;;;;;5079092;28;20591;-61
2024/03/29 00:16:46;;;;;;;6.15;1.05;;;4.80;99.90;;;;;;5066457;28;20079;-61
2024/03/29 00:19:32;;;;;;;4.97;1.00;;;4.80;99.90;;;;;;5053066;28;20032;-60
2024/03/29 00:22:17;;;;;;;5.03;1.10;;;4.80;99.90;;;;;;5063673;28;20043;-61
2024/03/29 00:25:04;;;;;;;5.47;0.77;;;4.70;99.90;;;;;;5057520;28;20033;-59
2024/03/29 00:27:50;;;;;;;6.05;1.25;;;4.70;99.90;;;;;;5060584;28;20032;-61
2024/03/29 00:30:35;;;;;;;4.70;1.00;;;4.70;99.90;;;;;;5055037;28;20039;-61
2024/03/29 00:33:21;;;;;;;4.15;0.90;;;4.60;99.90;;;;;;5061447;28;20041;-61
2024/03/29 00:36:08;;;;;;;3.70;1.10;;;4.60;99.90;;;;;;5056158;28;20060;-59
2024/03/29 00:38:54;;;;;;;4.10;0.90;;;4.50;99.90;;;;;;5062223;28;20036;-61
2024/03/29 00:41:40;;;;;;;3.60;0.88;;;4.50;99.90;;;;;;5059664;28;20299;-61
2024/03/29 00:44:26;;;;;;;7.38;0.90;;;4.50;99.90;;;;;;5051284;28;20063;-60
2024/03/29 00:47:13;;;;;;;5.10;1.10;;;4.50;99.90;;;;;;5063239;28;20040;-61
2024/03/29 00:49:59;;;;;;;5.47;1.23;;;4.50;99.90;;;;;;5057085;28;20037;-61
2024/03/29 00:52:45;;;;;;;3.88;0.85;;;4.50;99.90;;;;;;5062114;28;20394;-60
2024/03/29 00:55:31;;;;;;;7.63;1.00;;;4.60;99.90;;;;;;5057942;28;20719;-61
2024/03/29 00:58:16;;;;;;;9.48;1.00;;;4.60;99.90;;;;;;5058739;28;20282;-61
2024/03/29 01:01:02;;;;;;;7.43;0.80;;;4.60;99.90;;;;;;5062883;28;20047;-61
2024/03/29 01:03:48;;;;;;;4.10;1.43;;;4.50;99.90;;;;;;5075877;28;20523;-61
2024/03/29 01:06:34;;;;;;;2.97;1.05;;;4.50;99.90;;;;;;5076898;28;20251;-61
2024/03/29 01:09:20;;;;;;;5.35;0.93;;;4.50;99.90;;;;;;5075823;28;20100;-61
2024/03/29 01:12:06;;;;;;;2.67;0.97;;;4.40;99.90;;;;;;5072108;28;20484;-60
2024/03/29 01:14:52;;;;;;;5.43;0.90;;;4.40;99.90;;;;;;5076320;28;20062;-60
2024/03/29 01:17:38;;;;;;;8.03;1.27;;;4.40;99.90;;;;;;5077413;28;20527;-61
2024/03/29 01:20:23;;;;;;;4.85;1.00;;;4.40;99.90;;;;;;5072746;28;20089;-61
2024/03/29 01:23:09;;;;;;;2.40;0.88;;;4.30;99.90;;;;;;5076650;28;20693;-61
2024/03/29 01:25:55;;;;;;;9.07;1.00;;;4.30;99.90;;;;;;5079433;28;20185;-61
2024/03/29 01:28:41;;;;;;;6.60;1.00;;;4.30;99.90;;;;;;5079750;28;20089;-61
2024/03/29 01:31:27;;;;;;;6.10;0.93;;;4.30;99.90;;;;;;5062101;28;20033;-61
2024/03/29 01:34:13;;;;;;;4.15;1.17;;;4.30;99.90;;;;;;5051014;28;20360;-61
2024/03/29 01:36:58;;;;;;;5.88;1.55;;;4.30;99.90;;;;;;5061141;28;20029;-61
2024/03/29 01:39:44;;;;;;;7.10;0.98;;;4.30;99.90;;;;;;5051968;28;20124;-61
2024/03/29 01:42:30;;;;;;;2.63;1.00;;;4.30;99.90;;;;;;5051744;28;20456;-61
2024/03/29 01:45:16;;;;;;;8.73;0.98;;;4.40;99.90;;;;;;5051055;28;20036;-61
2024/03/29 01:48:03;;;;;;;6.53;1.83;;;4.30;99.90;;;;;;5061553;28;20031;-61
2024/03/29 01:50:51;;;;;;;8.57;1.10;;;4.30;99.90;;;;;;5054992;28;20033;-60
2024/03/29 01:53:36;;;;;;;9.68;0.85;;;4.30;99.90;;;;;;5053143;28;20033;-61
2024/03/29 01:56:23;;;;;;;7.70;1.05;;;4.30;99.90;;;;;;5056035;28;20059;-61
2024/03/29 01:59:16;;;;;;;7.63;1.13;;;4.30;99.90;;;;;;5056798;28;20040;-61
2024/03/29 02:02:03;;;;;;;3.72;0.90;;;4.40;99.90;;;;;;5067785;28;20086;-61
2024/03/29 02:04:49;;;;;;;3.70;1.02;;;4.40;99.90;;;;;;5075790;28;20025;-61
2024/03/29 02:07:36;;;;;;;3.85;1.20;;;4.40;99.90;;;;;;5069923;28;20086;-61
2024/03/29 02:10:22;;;;;;;;;;;4.50;99.90;;;;;;5074963;28;20053;-61
2024/03/29 02:13:08;;;;;;;5.32;1.13;;;4.50;99.90;;;;;;5081658;28;19916;-60
2024/03/29 02:15:53;;;;;;;6.20;1.07;;;4.50;99.90;;;;;;5070588;28;20051;-60
2024/03/29 02:18:39;;;;;;;3.50;0.90;;;4.60;99.90;;;;;;5075986;28;20480;-61
2024/03/29 02:21:25;;;;;;;7.22;1.10;;;4.60;99.90;;;;;;5071789;28;20032;-61
2024/03/29 02:24:16;;;;;;;6.07;1.07;;;4.60;99.90;;;;;;5076178;28;20450;-61
2024/03/29 02:27:01;;;;;;;3.42;1.17;;;4.60;99.90;;;;;;5079445;28;20508;-61
2024/03/29 02:29:59;;;;;;;6.57;0.90;;;4.70;99.90;;;;;;5077683;28;20112;-61
2024/03/29 02:32:46;;;;;;;7.10;1.02;;;4.70;99.90;;;;;;5082437;28;20380;-61
2024/03/29 02:35:32;;;;;;;6.32;1.00;;;4.70;99.90;;;;;;5073889;28;20032;-61
2024/03/29 02:38:18;;;;;;;4.47;0.77;;;4.80;99.90;;;;;;5077017;28;20589;-61
2024/03/29 02:41:04;;;;;;;5.13;1.00;;;4.90;99.90;;;;;;5069593;28;20106;-61
2024/03/29 02:43:50;;;;;;;4.47;0.70;;;4.90;99.90;;;;;;5076973;28;20024;-60
2024/03/29 02:46:36;;;;;;;5.90;0.93;;;5.00;99.90;;;;;;5072803;28;20039;-61
2024/03/29 02:49:22;;;;;;;5.25;0.93;;;5.00;99.90;;;;;;5073069;28;20043;-61
2024/03/29 02:52:08;;;;;;;2.50;0.60;;;5.10;99.90;;;;;;5074499;28;20906;-61
2024/03/29 02:54:53;;;;;;;1.15;0.50;;;5.10;99.90;;;;;;5071792;28;20029;-60
2024/03/29 02:57:39;;;;;;;3.40;0.80;;;5.10;99.90;;;;;;5077257;28;20032;-61
2024/03/29 03:00:25;;;;;;;1.70;0.60;;;5.20;99.90;;;;;;5076708;28;20103;-61
2024/03/29 03:03:15;;;;;;;3.03;0.80;;;5.20;99.90;;;;;;5078076;28;20239;-61
2024/03/29 03:06:02;;;;;;;4.25;0.80;;;5.20;99.90;;;;;;5071955;28;20036;-61
2024/03/29 03:11:53;;;;;;;5.60;0.80;;;5.20;99.90;;;;;;5075973;28;20027;-61
2024/03/29 03:14:41;;;;;;;3.03;0.85;;;5.20;99.90;;;;;;5071497;28;20036;-61
2024/03/29 03:17:28;;;;;;;3.10;0.70;;;5.20;99.90;;;;;;5075787;28;20183;-61
2024/03/29 03:20:16;;;;;;;5.00;1.25;;;5.40;99.90;;;;;;5071174;28;20032;-60
2024/03/29 03:23:02;;;;;;;2.70;0.60;;;5.40;99.90;;;;;;5076404;28;20036;-61
2024/03/29 03:26:08;;;;;;;6.90;1.00;;;5.40;99.90;;;;;;5074054;28;20115;-61
2024/03/29 03:28:54;;;;;;;3.28;0.68;;;5.50;99.90;;;;;;5071897;28;20028;-61
2024/03/29 03:31:39;;;;;;;3.70;0.57;;;5.40;99.90;;;;;;5066782;28;20068;-60
2024/03/29 03:34:25;;;;;;;3.47;0.80;;;5.40;99.90;;;;;;5074702;28;20050;-61
2024/03/29 03:37:11;;;;;;;2.67;0.70;;;5.40;99.90;;;;;;5073160;28;20027;-60
2024/03/29 03:39:57;;;;;;;4.38;0.60;;;5.40;99.90;;;;;;5070527;28;20032;-61
2024/03/29 03:42:43;;;;;;;5.72;0.82;;;5.40;99.90;;;;;;5076812;28;20498;-61
2024/03/29 03:45:33;;;;;;;3.10;0.90;;;5.40;99.90;;;;;;5073580;28;20597;-61
2024/03/29 03:48:19;;;;;;;3.33;0.73;;;5.40;99.90;;;;;;5077815;28;20040;-61
2024/03/29 03:51:05;;;;;;;4.28;0.75;;;5.40;99.90;;;;;;5075600;28;20618;-61
2024/03/29 03:53:51;;;;;;;6.47;0.87;;;5.40;99.90;;;;;;5079009;28;20127;-60
2024/03/29 03:56:36;;;;;;;3.20;0.68;;;5.40;99.90;;;;;;5074476;28;20036;-60
2024/03/29 03:59:22;;;;;;;5.32;0.93;;;5.50;99.90;;;;;;5083020;28;20036;-61
2024/03/29 04:02:08;;;;;;;2.13;0.68;;;5.50;99.90;;;;;;5077363;28;20048;-60
2024/03/29 04:04:54;;;;;;;2.92;0.60;;;5.60;99.90;;;;;;5079748;28;20154;-61
2024/03/29 04:07:40;;;;;;;3.33;0.60;;;5.60;99.90;;;;;;5074528;28;20028;-60
2024/03/29 04:10:26;;;;;;;2.30;0.73;;;5.60;99.90;;;;;;5077447;28;20724;-61
2024/03/29 04:13:11;;;;;;;4.07;0.70;;;5.60;99.90;;;;;;5074873;28;20036;-61
2024/03/29 04:16:04;;;;;;;6.00;0.77;;;5.60;99.90;;;;;;5076948;28;20119;-61
2024/03/29 04:18:51;;;;;;;3.40;0.70;;;5.60;99.90;;;;;;5076706;28;20461;-60
2024/03/29 04:21:36;;;;;;;3.30;0.85;;;5.60;99.90;;;;;;5069750;28;20124;-60
2024/03/29 04:24:22;;;;;;;10.57;2.50;;;5.60;99.90;;;;;;5082078;28;20040;-60
2024/03/29 04:27:08;;;;;;;3.25;0.85;;;5.60;99.90;;;;;;5080453;28;20115;-61
2024/03/29 04:29:54;;;;;;;7.78;1.33;;;5.60;99.90;;;;;;5074375;28;20401;-60
2024/03/29 04:32:40;;;;;;;3.45;0.82;;;5.60;99.90;;;;;;5077055;28;20237;-61
2024/03/29 04:35:26;;;;;;;6.97;0.90;;;5.50;99.90;;;;;;5081795;28;20051;-61
2024/03/29 04:38:12;;;;;;;4.72;0.90;;;5.50;99.90;;;;;;5077129;28;20051;-60
2024/03/29 04:40:58;;;;;;;5.20;1.00;;;5.60;99.90;;;;;;5077500;28;20064;-61
2024/03/29 04:43:45;;;;;;;5.93;1.00;;;5.50;99.90;;;;;;5083709;28;20440;-61
2024/03/29 04:46:31;;;;;;;2.83;0.98;;;5.50;99.90;;;;;;5076289;28;20047;-60
2024/03/29 04:49:30;;;;;;;3.63;1.00;;;5.50;99.90;;;;;;5076846;28;20024;-60
2024/03/29 04:52:16;;;;;;;5.38;1.00;;;5.50;99.90;;;;;;5074503;28;20679;-61
2024/03/29 04:55:02;;;;;;;3.72;1.10;;;5.40;99.90;;;;;;5082281;28;20170;-61
2024/03/29 04:57:48;;;;;;;3.37;1.03;;;5.40;99.90;;;;;;5078881;28;20513;-61
2024/03/29 05:00:34;;;;;;;1.92;0.77;;;5.40;99.90;;;;;;5071489;28;20351;-61
2024/03/29 05:03:21;;;;;;;5.72;1.50;;;5.30;99.90;;;;;;5079959;28;20028;-59
2024/03/29 05:06:07;;;;;;;10.73;2.80;;;5.30;99.90;;;;;;5078890;28;20066;-60
2024/03/29 05:08:53;;;;;;;4.13;1.17;;;5.20;99.90;;;;;;5082476;28;20027;-60
2024/03/29 05:11:39;;;;;;;7.80;1.42;;;5.10;99.90;;;;;;5074939;28;20477;-61
2024/03/29 05:14:25;;;;;;;4.53;0.90;;;5.10;99.90;;;;;;5075581;28;20067;-61
2024/03/29 05:17:11;;;;;;;6.22;1.30;;;5.10;99.90;;;;;;5079110;28;20028;-61
2024/03/29 05:19:56;;;;;;;3.00;1.40;;;5.00;99.90;;;;;;5073381;28;20111;-61
2024/03/29 05:22:42;;;;;;;5.97;1.30;;;5.00;99.90;;;;;;5076495;28;21196;-61
2024/03/29 05:25:28;;;;;;;7.47;1.33;;;5.00;99.90;;;;;;5076297;28;20124;-61
2024/03/29 05:28:14;;;;;;;2.47;1.05;;;5.00;99.90;;;;;;5082270;28;20077;-61
2024/03/29 05:31:14;;;;;;;4.90;1.17;;;5.00;99.90;;;;;;5077779;28;20143;-61
2024/03/29 05:34:00;;;;;;;5.53;1.42;;;5.00;99.90;;;;;;5072903;28;20047;-60
2024/03/29 05:36:46;;;;;;;5.13;1.83;;;5.00;99.90;;;;;;5081949;28;20405;-61
2024/03/29 05:39:32;;;;;;;2.83;1.27;;;4.90;99.90;;;;;;5073539;28;20793;-61
2024/03/29 05:42:18;;;;;;;5.07;1.55;;;5.00;99.90;;;;;;5076210;28;20408;-61
2024/03/29 05:45:25;;;;;;;3.67;1.30;;;5.00;99.90;;;;;;5079197;28;20063;-60
2024/03/29 05:48:11;;;;;;;;;;;5.10;99.90;;;;;;5081375;28;20589;-60
2024/03/29 05:50:57;;;;;;;6.40;1.50;;;5.10;99.90;;;;;;5076455;28;19958;-62
2024/03/29 05:53:43;;;;;;;3.55;1.10;;;5.10;99.90;;;;;;5073785;28;20458;-61
2024/03/29 05:56:29;;;;;;;6.80;1.17;;;5.10;99.90;;;;;;5077585;28;20039;-60
2024/03/29 05:59:15;;;;;;;5.97;1.20;;;5.10;99.90;;;;;;5074105;28;20032;-60
2024/03/29 06:02:01;;;;;;;6.80;1.33;;;5.10;99.90;;;;;;5078766;28;20086;-61
2024/03/29 06:04:47;;;;;;;2.28;0.77;;;5.20;99.90;;;;;;5070357;28;20489;-60
2024/03/29 06:07:33;;;;;;;3.50;1.03;;;5.20;99.90;;;;;;5075334;28;20262;-60
2024/03/29 06:10:19;;;;;;;7.72;1.00;;;5.20;99.90;;;;;;5076602;28;20046;-60
2024/03/29 06:13:10;;;;;;;7.50;1.63;;;5.20;99.90;;;;;;5073106;28;20063;-61
2024/03/29 06:19:00;;;;;;;5.10;1.23;;;5.30;99.90;;;;;;5081245;28;20024;-60
2024/03/29 06:21:46;;;;;;;3.95;1.50;;;5.40;99.90;;;;;;5071973;28;20466;-58
2024/03/29 06:24:33;;;;;;;3.97;1.05;;;5.40;99.90;;;;;;5076659;28;20612;-60
2024/03/29 06:27:20;;;;;;;3.05;0.93;;;5.40;99.90;;;;;;5078940;28;20039;-60
2024/03/29 06:30:08;;;;;;;3.90;1.10;;;5.40;99.90;;;;;;5079154;28;20035;-60
2024/03/29 06:32:53;;;;;;;5.45;1.20;;;5.40;99.90;;;;;;5080121;28;20654;-61
2024/03/29 06:35:39;;;;;;;5.75;1.10;;;5.40;99.90;;;;;;5078949;28;20429;-60
2024/03/29 06:38:25;;;;;;;4.22;1.23;;;5.30;99.90;;;;;;5075832;28;20216;-61
2024/03/29 06:41:11;;;;;;;7.53;1.58;;;5.30;99.90;;;;;;5080118;28;20035;-61
2024/03/29 06:43:58;;;;;;;3.80;1.45;;;5.30;99.90;;;;;;5079089;28;20124;-61
2024/03/29 06:46:43;;;;;;;2.27;0.93;;;5.40;99.90;;;;;;5071368;28;20036;-61
2024/03/29 06:49:29;;;;;;;3.15;0.90;;;5.50;99.90;;;;;;5073722;28;20091;-61
2024/03/29 06:52:15;;;;;;;6.55;1.20;;;5.50;99.90;;;;;;5073463;28;20165;-60
2024/03/29 06:55:01;;;;;;;2.30;0.80;;;5.50;99.90;;;;;;5073925;28;20024;-60
2024/03/29 06:57:47;;;;;;;3.28;0.98;;;5.60;99.90;;;;;;5069408;28;20122;-60
2024/03/29 07:00:33;;;;;;;2.42;1.00;;;5.70;99.90;;;;;;5069355;28;20036;-60
2024/03/29 07:03:19;;;;;;;3.23;0.90;;;5.60;99.90;;;;;;5076566;28;20039;-61
2024/03/29 07:06:05;;;;;;;6.13;1.27;;;5.60;99.90;;;;;;5072574;28;20114;-60
2024/03/29 07:08:51;;;;;;;3.53;1.27;;;5.70;99.90;;;;;;5075351;28;20074;-61
2024/03/29 07:11:36;;;;;;;5.50;1.17;;;5.70;99.90;;;;;;5077443;28;20070;-61
2024/03/29 07:14:23;;;;;;;2.28;1.02;;;5.80;99.90;;;;;;5075188;28;20093;-61
2024/03/29 07:17:09;;;;;;;2.40;1.00;;;5.90;99.90;;;;;;5075813;28;20036;-61
2024/03/29 07:19:55;;;;;;;3.33;1.15;;;6.00;99.90;;;;;;5075772;28;20626;-59
2024/03/29 07:22:40;;;;;;;5.38;1.33;;;6.00;99.90;;;;;;5077856;28;20028;-61
2024/03/29 07:25:26;;;;;;;2.88;1.13;;;6.00;99.90;;;;;;5077271;28;20070;-60
2024/03/29 07:28:14;;;;;;;2.28;0.98;;;6.10;99.90;;;;;;5079885;28;20031;-61
2024/03/29 07:31:09;;;;;;;4.30;1.10;;;6.10;99.90;;;;;;5078503;28;20033;-60
2024/03/29 07:33:54;;;;;;;3.33;0.77;;;6.10;99.90;;;;;;5078600;28;20451;-61
2024/03/29 07:36:40;;;;;;;2.58;0.98;;;6.20;99.90;;;;;;5083657;28;20586;-60
2024/03/29 07:39:26;;;;;;;2.78;1.17;;;6.20;99.90;;;;;;5073873;28;20027;-61
2024/03/29 07:42:12;;;;;;;1.15;0.80;;;6.20;99.90;;;;;;5085524;28;20043;-61
2024/03/29 07:44:58;;;;;;;2.38;0.95;;;6.30;99.90;;;;;;5079668;28;20032;-61
2024/03/29 07:47:44;;;;;;;2.47;0.80;;;6.40;99.90;;;;;;5078518;28;20316;-60
2024/03/29 07:50:30;;;;;;;1.50;0.60;;;6.40;99.90;;;;;;5080592;28;20410;-61
2024/03/29 07:53:16;;;;;;;1.55;1.02;;;6.50;99.90;;;;;;5080022;28;20032;-61
2024/03/29 07:56:03;;;;;;;3.50;0.93;;;6.50;99.90;;;;;;5075772;22;20610;-65
2024/03/29 07:58:53;;;;;;;2.60;0.90;;;6.60;99.90;;;;;;5050383;28;20040;-65
2024/03/29 08:01:41;;;;;;;2.53;0.90;;;6.60;99.90;;;;;;5044859;28;20071;-65
2024/03/29 08:04:27;;;;;;;4.75;0.73;;;6.60;99.90;;;;;;5046647;28;20037;-65
2024/03/29 08:07:13;;;;;;;2.10;1.05;;;6.70;99.90;;;;;;5046323;28;20395;-65
2024/03/29 08:09:59;;;;;;;2.35;0.88;;;6.70;99.90;;;;;;5047479;28;20620;-65
2024/03/29 08:12:45;;;;;;;1.17;0.68;;;6.70;99.90;;;;;;5040144;28;20095;-65
2024/03/29 08:15:30;;;;;;;1.50;0.60;;;6.70;99.90;;;;;;5036832;28;20095;-65
2024/03/29 08:18:16;;;;;;;1.30;0.68;;;6.70;99.90;;;;;;5047066;28;20028;-65
2024/03/29 08:21:03;;;;;;;1.88;0.80;;;6.70;99.90;;;;;;5044118;28;20029;-64
2024/03/29 08:23:50;;;;;;;1.48;0.80;;;6.80;99.90;;;;;;5048863;28;20505;-64
2024/03/29 08:26:36;;;;;;;2.22;0.85;;;6.80;99.90;;;;;;5031431;28;20409;-64
2024/03/29 08:29:22;;;;;;;5.10;0.82;;;6.90;99.90;;;;;;5048632;28;20778;-64
2024/03/29 08:32:10;;;;;;;1.55;0.88;;;6.90;99.90;;;;;;5044672;28;20033;-64
2024/03/29 08:34:56;;;;;;;4.45;0.80;;;7.00;99.90;;;;;;5048180;28;20049;-63
2024/03/29 08:37:42;;;;;;;3.50;0.77;;;7.10;99.90;;;;;;5048868;28;20410;-63
2024/03/29 08:40:31;;;;;;;1.75;0.65;;;7.30;99.90;;;;;;5048590;28;20076;-64
2024/03/29 08:43:17;;;;;;;1.67;0.65;;;7.50;99.90;;;;;;5045373;28;20482;-64
2024/03/29 08:46:03;;;;;;;2.15;0.70;;;7.70;99.90;;;;;;5045829;28;20041;-64
2024/03/29 08:48:49;;;;;;;2.28;0.55;;;7.80;99.90;;;;;;5048386;28;20044;-64
2024/03/29 08:51:35;;;;;;;2.35;1.02;;;8.00;99.90;;;;;;5043086;28;20162;-64
2024/03/29 08:54:21;;;;;;;2.08;0.57;;;8.10;99.90;;;;;;5042500;28;20509;-64
2024/03/29 08:57:07;;;;;;;0.60;0.50;;;8.10;99.90;;;;;;5045897;28;20554;-64
2024/03/29 08:59:53;;;;;;;1.33;0.60;;;8.20;99.90;;;;;;5045996;28;20276;-64
2024/03/29 09:02:39;;;;;;;1.33;0.60;;;8.30;99.90;;;;;;5044129;28;20425;-64
2024/03/29 09:05:27;;;;;;;0.73;0.50;;;8.60;99.90;;;;;;5045896;28;20126;-65
2024/03/29 09:08:13;;;;;;;1.58;0.60;;;8.90;99.90;;;;;;5045259;28;20056;-65
2024/03/29 09:11:00;;;;;;;0.75;0.50;;;8.90;99.90;;;;;;5049695;28;20043;-65
2024/03/29 09:13:46;;;;;;;1.38;0.52;;;9.10;99.90;;;;;;5025550;28;20082;-65
2024/03/29 09:16:32;;;;;;;1.13;0.45;;;9.40;99.90;;;;;;5045401;28;20091;-65
2024/03/29 09:19:18;;;;;;;0.63;0.60;;;9.70;99.90;;;;;;5047524;28;20033;-65
2024/03/29 09:22:05;;;;;;;2.08;0.77;;;9.70;99.90;;;;;;5047187;28;20208;-65
2024/03/29 09:24:51;;;;;;;0.57;0.50;;;9.70;99.90;;;;;;5046447;28;20033;-65
2024/03/29 09:27:39;;;;;;;1.88;0.60;;;9.40;99.90;;;;;;5039051;28;20120;-65
2024/03/29 09:30:25;;;;;;;0.73;0.30;;;9.30;99.90;;;;;;5046532;28;20037;-65
2024/03/29 09:33:11;;;;;;;1.10;0.60;;;9.20;99.90;;;;;;5045972;28;20068;-65
2024/03/29 09:35:58;;;;;;;0.30;0.30;;;9.30;99.90;;;;;;5046570;28;20108;-65
2024/03/29 09:38:44;;;;;;;1.63;0.70;;;9.30;99.90;;;;;;5045416;28;20037;-65
2024/03/29 09:41:34;;;;;;;2.60;0.65;;;9.40;99.90;;;;;;5043099;28;20479;-65
2024/03/29 09:44:22;;;;;;;1.90;0.77;;;9.30;99.90;;;;;;5046254;28;20056;-65
2024/03/29 09:47:08;;;;;;;0.68;0.50;;;9.30;99.90;;;;;;5046334;28;20043;-65
2024/03/29 09:49:56;;;;;;;1.67;0.47;;;9.40;99.90;;;;;;5044643;28;20037;-65
2024/03/29 09:52:42;;;;;;;2.85;0.35;;;9.40;99.90;;;;;;5043375;28;20033;-66
2024/03/29 09:55:28;;;;;;;1.48;0.47;;;9.50;99.90;;;;;;5041043;28;20033;-65
2024/03/29 09:58:14;;;;;;;0.38;0.30;;;9.50;99.90;;;;;;5044240;28;20033;-66
2024/03/29 10:01:05;;;;;;;1.23;0.45;;;9.50;99.90;;;;;;5045947;28;20040;-66
2024/03/29 10:03:53;;;;;;;0.40;0.30;;;9.40;99.90;;;;;;5045885;28;20080;-66
2024/03/29 10:06:42;;;;;;;2.47;0.63;;;9.40;99.90;;;;;;5044571;28;20039;-65
2024/03/29 10:09:32;;;;;;;0.45;0.40;;;9.40;99.90;;;;;;5046363;28;20037;-65
2024/03/29 10:12:18;;;;;;;1.17;0.40;;;9.50;99.90;;;;;;5029693;28;20486;-65
2024/03/29 10:15:20;;;;;;;1.67;0.60;;;9.50;99.90;;;;;;5043540;28;20044;-65
2024/03/29 10:18:09;;;;;;;2.03;0.98;;;9.30;99.90;;;;;;5044904;28;20454;-65
2024/03/29 10:21:04;;;;;;;0.75;0.40;;;9.50;99.90;;;;;;5045899;28;20028;-65
2024/03/29 10:23:51;;;;;;;1.05;0.60;;;9.50;99.90;;;;;;5043999;28;20498;-66
2024/03/29 10:26:38;;;;;;;1.48;0.70;;;9.20;99.90;;;;;;5048090;28;20411;-66
2024/03/29 10:29:29;;;;;;;1.52;0.50;;;9.20;99.90;;;;;;5045228;28;20060;-66
2024/03/29 10:32:15;;;;;;;1.48;0.60;;;9.50;99.90;;;;;;5050004;28;20112;-66
2024/03/29 10:35:02;;;;;;;1.50;0.80;;;9.70;99.90;;;;;;5044326;28;20111;-66
2024/03/29 10:37:48;;;;;;;1.75;0.60;;;9.80;99.90;;;;;;5025564;28;20029;-66
2024/03/29 10:40:34;;;;;;;2.80;0.60;;;9.70;99.90;;;;;;5038164;28;20045;-66
2024/03/29 10:43:21;;;;;;;2.63;0.75;;;9.50;99.90;;;;;;5044318;28;20639;-66
2024/03/29 10:46:07;;;;;;;0.90;0.52;;;9.50;99.90;;;;;;5045130;28;20486;-65
2024/03/29 10:48:53;;;;;;;0.40;0.33;;;9.50;99.90;;;;;;5044061;28;20036;-66
2024/03/29 10:51:40;;;;;;;1.90;0.60;;;9.50;99.90;;;;;;5042868;28;20138;-66
2024/03/29 10:54:27;;;;;;;;;;;9.50;99.90;;;;;;5040723;28;20092;-66
2024/03/29 10:57:24;;;;;;;1.52;0.60;;;9.40;99.90;;;;;;5039832;28;19944;-66
2024/03/29 11:00:18;;;;;;;;;;;9.50;99.90;;;;;;5042849;28;20033;-66
2024/03/29 11:03:18;;;;;;;1.27;0.50;;;9.60;99.90;;;;;;5045439;28;20285;-66
2024/03/29 11:06:05;;;;;;;2.47;0.75;;;9.50;99.90;;;;;;5043661;28;20033;-66
2024/03/29 11:08:53;;;;;;;1.85;0.63;;;9.40;99.90;;;;;;5042090;28;20144;-66
2024/03/29 11:11:42;;;;;;;2.85;0.80;;;9.50;99.90;;;;;;5047633;28;20032;-65
2024/03/29 11:14:42;;;;;;;1.70;0.80;;;9.60;99.90;;;;;;5044258;28;20048;-66
2024/03/29 11:17:30;;;;;;;3.17;0.60;;;9.70;99.90;;;;;;5045114;28;20087;-66
2024/03/29 11:20:22;;;;;;;2.00;0.70;;;9.90;99.90;;;;;;5043371;28;21013;-66
2024/03/29 11:23:10;;;;;;;1.33;0.80;;;9.90;99.90;;;;;;5047598;28;20033;-66
2024/03/29 11:26:00;;;;;;;1.90;0.60;;;10.00;99.90;;;;;;5043997;28;20040;-66
2024/03/29 11:28:53;;;;;;;6.38;0.88;;;10.00;99.90;;;;;;5042843;28;20025;-66
2024/03/29 11:31:39;;;;;;;1.13;0.68;;;10.20;99.90;;;;;;5044495;28;20029;-66
2024/03/29 11:34:25;;;;;;;1.60;0.50;;;10.30;99.90;;;;;;5039566;28;20489;-65
2024/03/29 11:37:12;;;;;;;1.10;0.88;;;10.30;99.90;;;;;;5042842;28;20033;-66
2024/03/29 11:40:00;;;;;;;1.50;0.70;;;10.20;99.90;;;;;;5046492;28;20472;-65
2024/03/29 11:42:52;;;;;;;3.28;0.70;;;10.10;99.90;;;;;;5042640;28;20036;-66
2024/03/29 11:45:39;;;;;;;1.73;0.60;;;10.00;99.90;;;;;;5047389;28;20040;-66
2024/03/29 11:48:27;;;;;;;1.42;0.80;;;10.00;99.90;;;;;;5046799;28;20044;-65
2024/03/29 11:51:18;;;;;;;1.02;0.80;;;9.90;99.90;;;;;;5046401;28;20029;-66
2024/03/29 11:54:04;;;;;;;2.00;0.90;;;9.90;99.90;;;;;;5043953;28;20041;-65
2024/03/29 11:56:50;;;;;;;1.90;1.03;;;9.90;99.90;;;;;;5043021;28;20387;-66
2024/03/29 11:59:36;;;;;;;2.05;0.85;;;9.90;99.90;;;;;;5041774;28;20036;-65
2024/03/29 12:02:22;;;;;;;4.70;0.82;;;10.00;99.90;;;;;;5050177;28;20041;-65
2024/03/29 12:05:09;;;;;;;;;;;10.00;99.90;;;;;;5043090;28;20033;-66
2024/03/29 12:07:55;;;;;;;4.20;0.85;;;10.10;99.90;;;;;;5042852;28;19912;-65
2024/03/29 12:10:41;;;;;;;2.05;0.70;;;10.20;99.90;;;;;;5042428;28;20029;-65
2024/03/29 12:13:27;;;;;;;3.87;0.97;;;10.20;99.90;;;;;;5040655;28;20091;-66
2024/03/29 12:16:14;;;;;;;2.75;1.00;;;10.10;99.90;;;;;;5049570;28;20461;-66
2024/03/29 12:19:00;;;;;;;;;;;10.00;99.90;;;;;;5046763;28;20045;-66
2024/03/29 12:21:46;;;;;;;1.98;0.88;;;10.00;99.90;;;;;;5048997;28;19912;-66
2024/03/29 12:24:32;;;;;;;1.45;0.77;;;10.00;99.90;;;;;;5054045;28;20036;-67
2024/03/29 12:27:19;;;;;;;4.43;0.50;;;10.00;99.90;;;;;;5046560;28;20036;-67
2024/03/29 12:30:06;;;;;;;1.23;0.68;;;10.10;99.90;;;;;;5044198;28;20037;-67
2024/03/29 12:33:02;;;;;;;1.40;0.80;;;10.20;99.90;;;;;;5046897;28;20036;-66
2024/03/29 12:35:52;;;;;;;4.45;0.82;;;10.50;99.90;;;;;;5044017;28;20112;-67
2024/03/29 12:38:38;;;;;;;1.98;0.95;;;10.50;99.90;;;;;;5046340;28;20033;-67
2024/03/29 12:41:24;;;;;;;3.83;0.90;;;10.60;99.90;;;;;;5045163;28;20037;-67
2024/03/29 12:44:11;;;;;;;4.45;1.15;;;10.70;99.90;;;;;;5047864;28;20029;-64
2024/03/29 12:46:56;;;;;;;1.25;0.80;;;10.70;99.90;;;;;;5045798;28;20098;-65
2024/03/29 12:49:42;;;;;;;1.73;1.00;;;10.80;99.90;;;;;;5044841;28;20036;-64
2024/03/29 12:52:37;;;;;;;1.77;0.90;;;11.00;99.90;;;;;;5048010;28;20555;-65
2024/03/29 12:55:24;;;;;;;2.03;1.05;;;11.10;99.90;;;;;;5044419;28;20516;-65
2024/03/29 12:58:11;;;;;;;3.90;1.00;;;11.20;99.90;;;;;;5045278;28;20508;-65
2024/03/29 13:00:57;;;;;;;;;;;11.30;99.90;;;;;;5044983;28;20047;-66
2024/03/29 13:03:44;;;;;;;1.77;0.75;;;11.40;99.90;;;;;;5044578;28;20032;-66
2024/03/29 13:06:29;;;;;;;1.80;1.10;;;11.20;99.90;;;;;;5046368;28;20041;-66
2024/03/29 13:09:15;;;;;;;2.47;0.90;;;11.00;99.90;;;;;;5046160;28;20029;-65
2024/03/29 13:12:01;;;;;;;3.08;1.15;;;11.00;99.90;;;;;;5044128;28;20212;-65
2024/03/29 13:14:47;;;;;;;4.15;1.30;;;10.80;99.90;;;;;;5045728;28;20397;-66
2024/03/29 13:17:33;;;;;;;2.00;1.13;;;10.70;99.90;;;;;;5046284;28;20037;-66
2024/03/29 13:20:19;;;;;;;2.35;1.20;;;10.80;99.90;;;;;;5043769;28;20100;-66
2024/03/29 13:23:05;;;;;;;2.22;1.55;;;10.90;99.90;;;;;;5043806;28;20139;-66
2024/03/29 13:25:53;;;;;;;3.05;1.48;;;11.00;99.90;;;;;;5042181;28;20029;-66
2024/03/29 13:28:39;;;;;;;2.35;0.90;;;11.00;99.90;;;;;;5039391;28;20065;-66
2024/03/29 13:31:28;;;;;;;2.58;1.00;;;11.00;99.90;;;;;;5027309;28;20484;-66
2024/03/29 13:34:14;;;;;;;1.80;1.02;;;10.60;99.90;;;;;;5040652;28;20029;-66
2024/03/29 13:37:00;;;;;;;1.63;1.00;;;10.60;99.90;;;;;;5045049;28;20538;-65
2024/03/29 13:39:46;;;;;;;2.45;1.50;;;10.60;99.90;;;;;;5044017;28;20478;-66
2024/03/29 13:42:32;;;;;;;3.08;0.88;;;10.50;99.90;;;;;;5043833;28;20539;-66
2024/03/29 13:45:18;;;;;;;2.40;0.98;;;10.60;99.90;;;;;;5044753;28;20043;-66
2024/03/29 13:48:05;;;;;;;2.30;0.88;;;10.60;99.90;;;;;;5043957;28;20080;-66
2024/03/29 13:50:51;;;;;;;1.83;0.90;;;10.80;99.90;;;;;;5047969;28;20029;-66
2024/03/29 13:53:37;;;;;;;1.42;0.88;;;11.00;99.90;;;;;;5042393;28;20048;-66
2024/03/29 13:56:23;;;;;;;2.35;0.80;;;11.00;99.90;;;;;;5033560;28;20549;-66
2024/03/29 13:59:08;;;;;;;2.90;0.82;;;10.90;99.90;;;;;;5044527;28;20047;-66
2024/03/29 14:01:54;;;;;;;1.33;0.95;;;10.90;99.90;;;;;;5043433;28;20136;-66
2024/03/29 14:04:41;;;;;;;1.88;0.70;;;11.10;99.90;;;;;;5047074;28;20486;-66
2024/03/29 14:07:28;;;;;;;0.77;0.50;;;11.00;99.90;;;;;;5045072;28;20120;-66
2024/03/29 14:10:14;;;;;;;1.20;0.80;;;11.10;99.90;;;;;;5044874;28;20033;-66
2024/03/29 14:13:01;;;;;;;2.88;0.73;;;11.00;99.90;;;;;;5046218;28;20378;-66
2024/03/29 14:15:47;;;;;;;1.45;0.70;;;10.90;99.90;;;;;;5035854;28;20031;-66
2024/03/29 14:18:36;;;;;;;1.88;0.80;;;10.80;99.90;;;;;;5040683;28;20147;-66
2024/03/29 14:21:22;;;;;;;1.48;0.70;;;10.60;99.90;;;;;;5049205;28;20072;-65
2024/03/29 14:24:08;;;;;;;3.13;0.60;;;10.60;99.90;;;;;;5043271;28;20159;-66
2024/03/29 14:26:55;;;;;;;1.35;0.65;;;10.50;99.90;;;;;;5041840;28;20048;-66
2024/03/29 14:29:44;;;;;;;0.98;0.50;;;10.40;99.90;;;;;;5039884;28;20029;-66
2024/03/29 14:32:30;;;;;;;1.27;0.73;;;10.40;99.90;;;;;;5043195;28;20041;-66
2024/03/29 14:35:17;;;;;;;1.67;0.60;;;10.40;99.90;;;;;;5045636;28;20131;-66
2024/03/29 14:38:02;;;;;;;0.88;0.60;;;10.40;99.90;;;;;;5043349;28;20041;-66
2024/03/29 14:40:48;;;;;;;1.52;0.60;;;10.40;99.90;;;;;;5043748;28;20119;-66
2024/03/29 14:43:34;;;;;;;3.20;0.60;;;10.40;99.90;;;;;;5045146;28;20537;-66
2024/03/29 14:46:20;;;;;;;1.38;0.70;;;10.50;99.90;;;;;;5042651;28;20072;-65